Teterboro Airport
KTEB : now visible

Airfield :











YOU CAN JOIN US ON...

 
LOGIN :

Register | Disclaimer

   EN    FR    IT 

 









Legend :    VFR   Marginal VFR   IFR   Intensive IFR   Very Intensive IFR
Visi :
Ceiling :
>= 8 km
>= 3000ft
5 to 8 km
1000 to 3000 ft
1500m to 5 km
500 to 1000 ft
800 to 1500m
200 to 500 ft
< 800m
< 200 ft
Symbols :   Thunderstorms  Fog  Heavy snow  Heavy precipitations  Wind > 20 kt






- Airport Elevation : 9 ft


KTEB - Teterboro

CURRENT METAR :
  • 151651Z 27018G23KT 10SM OVC060 09/M02 A2977 RMK AO2 PK WND 27028/1621 SLP080 T00891022

EXPIRED METARs :
  • 151551Z 27011G20KT 10SM SCT049 OVC065 08/00 A2976 RMK AO2 PK WND 28026/1530 SLP078 T00830000
  • 151451Z 26013G17KT 10SM BKN050 OVC075 08/01 A2974 RMK AO2 SLP072 T00830006 51026

TAF KTEB
Valid from the 15 at 14:00 until the 16 at 18:00 UTC


151426Z 1514/1618 26016G24KT P6SM OVC050
FM152200 28016G24KT P6SM SCT045 SCT250
FM160100 29012G18KT P6SM FEW250
FM160300 29008KT P6SM SCT250
FM160800 29005KT P6SM BKN120
FM161100 VRB05KT P6SM BKN050
FM161700 20005KT 5SM -SN SCT015 BKN025



MET'MAP, your aeronautical weather chart ! - Copyright ORBIFLY December 2007 - Disclaimer

ORBIFLY MET'MAP TEAM :

Programming & Development : Alexandra Zaïnal
Concept & original design : Baudouin d'Aumeries
Assistance for programming : Marc-Olivier Méhu
Technical & hardware support : Manuel Goepfert

Contact : metmap@orbifly.com




SOURCES & CREDITS :

   NOAA       Earth
Advisory